Time;durP1;ratioP1;P1;durP2;ratioP2;P2;SDS_P1;SDS_P2;PMS_P1;PMS_P2;Temp;Humidity;BMP_temperature;BMP_pressure;BME280_temperature;BME280_humidity;BME280_pressure;Samples;Min_cycle;Max_cycle;Signal;HPM_P1;HPM_P2
2021/01/18 00:00:08;0.00;0.00;0.62;0.00;0.00;0.62;1.63;1.37;;;18.40;26.20;;;;;;2254133;61;20392;-61
2021/01/18 00:02:53;0.00;0.00;0.62;0.00;0.00;0.62;1.57;1.33;;;18.40;26.20;;;;;;2253859;61;20440;-61
2021/01/18 00:05:37;0.00;0.00;0.62;0.00;0.00;0.62;1.80;1.47;;;18.40;26.20;;;;;;2253444;61;20388;-63
2021/01/18 00:08:22;0.00;0.00;0.62;0.00;0.00;0.62;1.90;1.47;;;18.40;26.20;;;;;;2254036;61;20384;-63
2021/01/18 00:11:08;0.00;0.00;0.62;0.00;0.00;0.62;1.90;1.70;;;18.40;26.20;;;;;;2255994;61;20372;-62
2021/01/18 00:13:53;0.00;0.00;0.62;0.00;0.00;0.62;2.47;1.90;;;18.40;26.20;;;;;;2254077;61;20372;-61
2021/01/18 00:16:38;0.00;0.00;0.62;0.00;0.00;0.62;1.93;1.57;;;18.40;26.10;;;;;;2254052;61;20456;-62
2021/01/18 00:19:22;0.00;0.00;0.62;0.00;0.00;0.62;2.30;1.90;;;18.40;26.10;;;;;;2253081;61;20369;-60
2021/01/18 00:22:07;0.00;0.00;0.62;0.00;0.00;0.62;2.20;1.97;;;18.40;26.20;;;;;;2254256;61;20360;-61
2021/01/18 00:24:51;0.00;0.00;0.62;0.00;0.00;0.62;2.50;1.77;;;18.40;26.20;;;;;;2253719;61;20427;-60
2021/01/18 00:27:38;0.00;0.00;0.62;0.00;0.00;0.62;2.30;1.73;;;18.40;26.20;;;;;;2253330;61;20455;-61
2021/01/18 00:30:24;0.00;0.00;0.62;0.00;0.00;0.62;2.07;1.67;;;18.50;26.20;;;;;;2254029;61;20539;-63
2021/01/18 00:33:09;0.00;0.00;0.62;0.00;0.00;0.62;1.97;1.50;;;18.40;26.20;;;;;;2253703;61;20383;-60
2021/01/18 00:35:54;0.00;0.00;0.62;0.00;0.00;0.62;1.77;1.60;;;18.40;26.20;;;;;;2254225;61;20431;-61
2021/01/18 00:38:38;0.00;0.00;0.62;0.00;0.00;0.62;1.90;1.60;;;18.40;26.20;;;;;;2253809;61;20492;-60
2021/01/18 00:41:23;0.00;0.00;0.62;0.00;0.00;0.62;1.87;1.67;;;18.40;26.20;;;;;;2253140;61;20380;-61
2021/01/18 00:44:09;0.00;0.00;0.62;0.00;0.00;0.62;2.13;1.50;;;18.40;26.20;;;;;;2254234;61;20365;-61
2021/01/18 00:46:53;0.00;0.00;0.62;0.00;0.00;0.62;1.90;1.70;;;18.40;26.20;;;;;;2253634;61;20608;-61
2021/01/18 00:49:38;0.00;0.00;0.62;0.00;0.00;0.62;2.10;1.80;;;18.40;26.20;;;;;;2252982;61;20462;-61
2021/01/18 00:52:23;0.00;0.00;0.62;0.00;0.00;0.62;2.27;1.90;;;18.50;26.30;;;;;;2256452;61;20570;-61
2021/01/18 00:55:12;0.00;0.00;0.62;0.00;0.00;0.62;1.97;1.57;;;18.50;26.30;;;;;;2253005;61;20368;-61
2021/01/18 00:58:13;0.00;0.00;0.62;0.00;0.00;0.62;2.57;1.60;;;18.50;26.30;;;;;;2253716;61;20748;-62
2021/01/18 01:01:03;0.00;0.00;0.62;0.00;0.00;0.62;2.30;1.77;;;18.50;26.30;;;;;;2253207;61;20728;-61
2021/01/18 01:03:49;0.00;0.00;0.62;0.00;0.00;0.62;1.80;1.50;;;18.50;26.30;;;;;;2252792;61;20379;-63
2021/01/18 01:06:34;0.00;0.00;0.62;0.00;0.00;0.62;2.17;1.53;;;18.50;26.30;;;;;;2253881;61;20385;-61
2021/01/18 01:09:19;0.00;0.00;0.62;0.00;0.00;0.62;2.10;1.70;;;18.50;26.30;;;;;;2253130;61;20435;-61
2021/01/18 01:12:04;0.00;0.00;0.62;0.00;0.00;0.62;2.73;1.63;;;18.50;26.90;;;;;;2253455;61;20416;-61
2021/01/18 01:14:49;0.00;0.00;0.62;0.00;0.00;0.62;1.73;1.53;;;18.50;26.30;;;;;;2253939;61;20367;-62
2021/01/18 01:17:40;0.00;0.00;0.62;0.00;0.00;0.62;1.93;1.57;;;18.50;26.90;;;;;;2253656;61;20360;-61
2021/01/18 01:20:26;0.00;0.00;0.62;0.00;0.00;0.62;1.50;1.33;;;18.50;26.40;;;;;;2254095;61;20364;-61
2021/01/18 01:23:11;0.00;0.00;0.62;0.00;0.00;0.62;1.80;1.60;;;18.50;26.30;;;;;;2253662;61;20716;-61
2021/01/18 01:25:55;0.00;0.00;0.62;0.00;0.00;0.62;2.93;1.60;;;18.50;26.40;;;;;;2253248;61;20431;-61
2021/01/18 01:28:40;0.00;0.00;0.62;0.00;0.00;0.62;1.90;1.50;;;18.50;26.40;;;;;;2253818;61;20380;-61
2021/01/18 01:31:24;0.00;0.00;0.62;0.00;0.00;0.62;1.80;1.60;;;18.50;26.40;;;;;;2253317;61;20410;-63
2021/01/18 01:34:10;0.00;0.00;0.62;0.00;0.00;0.62;2.03;1.60;;;18.50;26.40;;;;;;2253557;61;20592;-61
2021/01/18 01:36:55;0.00;0.00;0.62;0.00;0.00;0.62;2.43;1.80;;;18.60;26.50;;;;;;2253821;61;20384;-61
2021/01/18 01:39:39;0.00;0.00;0.62;0.00;0.00;0.62;2.00;1.50;;;18.50;26.40;;;;;;2253603;61;20391;-61
2021/01/18 01:42:24;0.00;0.00;0.62;0.00;0.00;0.62;2.00;1.73;;;18.50;26.40;;;;;;2253762;61;20364;-61
2021/01/18 01:45:12;0.00;0.00;0.62;0.00;0.00;0.62;2.47;1.83;;;18.60;26.50;;;;;;2253677;61;20380;-62
2021/01/18 01:47:57;0.00;0.00;0.62;0.00;0.00;0.62;2.30;1.80;;;18.50;26.40;;;;;;2253175;61;20364;-60
2021/01/18 01:50:45;0.00;0.00;0.62;0.00;0.00;0.62;2.27;2.03;;;18.50;26.50;;;;;;2253734;61;20359;-63
2021/01/18 01:53:32;0.00;0.00;0.62;0.00;0.00;0.62;4.90;3.30;;;18.50;26.50;;;;;;2253643;61;20472;-62
2021/01/18 01:56:17;0.00;0.00;0.62;0.00;0.00;0.62;5.40;3.10;;;18.60;26.60;;;;;;2253299;61;20573;-63
2021/01/18 01:59:03;0.00;0.00;0.62;0.00;0.00;0.62;7.90;3.33;;;18.60;26.60;;;;;;2253756;61;20437;-61
2021/01/18 02:01:48;0.00;0.00;0.62;0.00;0.00;0.62;6.43;4.60;;;18.50;26.50;;;;;;2253629;61;20435;-63
2021/01/18 02:04:33;0.00;0.00;0.62;0.00;0.00;0.62;7.17;4.30;;;18.50;26.50;;;;;;2253338;61;20574;-63
2021/01/18 02:07:24;0.00;0.00;0.62;0.00;0.00;0.62;8.97;4.13;;;18.50;26.50;;;;;;2253594;61;20384;-63
2021/01/18 02:10:11;0.00;0.00;0.62;0.00;0.00;0.62;4.83;3.97;;;18.50;26.50;;;;;;2252707;61;20728;-63
2021/01/18 02:12:58;0.00;0.00;0.62;0.00;0.00;0.62;9.50;3.80;;;18.40;26.40;;;;;;2253962;61;20586;-63
2021/01/18 02:15:54;0.00;0.00;0.62;0.00;0.00;0.62;7.50;3.90;;;18.40;26.40;;;;;;2253758;61;20376;-63
2021/01/18 02:18:57;0.00;0.00;0.62;0.00;0.00;0.62;6.43;4.00;;;18.40;26.40;;;;;;2253163;61;20403;-63
2021/01/18 02:22:43;0.00;0.00;0.62;0.00;0.00;0.62;7.27;4.50;;;18.40;26.40;;;;;;2253868;61;20360;-63
2021/01/18 02:25:37;0.00;0.00;0.62;0.00;0.00;0.62;6.97;4.27;;;18.40;26.40;;;;;;2240169;62;20386;-63
2021/01/18 02:28:31;0.00;0.00;0.62;0.00;0.00;0.62;5.10;3.63;;;18.40;26.40;;;;;;2253485;61;20425;-63
2021/01/18 02:31:41;0.00;0.00;0.62;0.00;0.00;0.62;6.10;3.87;;;18.30;26.30;;;;;;2253321;61;20360;-62
2021/01/18 02:35:02;0.00;0.00;0.62;0.00;0.00;0.62;7.93;4.03;;;18.30;26.30;;;;;;2253951;61;20356;-61
2021/01/18 02:38:13;0.00;0.00;0.62;0.00;0.00;0.62;5.77;4.37;;;18.30;26.30;;;;;;2253891;61;20375;-63
2021/01/18 02:41:14;0.00;0.00;0.62;0.00;0.00;0.62;7.90;4.60;;;18.30;26.40;;;;;;2253158;61;20368;-63
2021/01/18 02:44:06;0.00;0.00;0.62;0.00;0.00;0.62;7.13;4.57;;;18.30;26.30;;;;;;2253853;61;20358;-63
2021/01/18 02:46:52;0.00;0.00;0.62;0.00;0.00;0.62;4.87;3.80;;;18.20;26.30;;;;;;2252851;61;20388;-63
2021/01/18 02:49:37;0.00;0.00;0.62;0.00;0.00;0.62;7.70;4.23;;;18.20;26.30;;;;;;2253662;61;20390;-63
2021/01/18 02:52:22;0.00;0.00;0.62;0.00;0.00;0.62;6.83;4.40;;;18.20;26.30;;;;;;2253734;61;20364;-63
2021/01/18 02:55:09;0.00;0.00;0.62;0.00;0.00;0.62;6.30;3.83;;;18.20;26.30;;;;;;2253075;61;20638;-63
2021/01/18 02:57:58;0.00;0.00;0.62;0.00;0.00;0.62;8.40;4.13;;;18.20;26.30;;;;;;2253802;61;20384;-62
2021/01/18 03:00:55;0.00;0.00;0.62;0.00;0.00;0.62;4.47;3.60;;;18.20;26.30;;;;;;2253276;61;20361;-63
2021/01/18 03:03:52;0.00;0.00;0.62;0.00;0.00;0.62;5.97;4.23;;;18.10;26.80;;;;;;2253337;61;20364;-63
2021/01/18 03:06:44;0.00;0.00;0.62;0.00;0.00;0.62;5.70;3.77;;;18.10;26.30;;;;;;2253757;61;20391;-63
2021/01/18 03:09:36;0.00;0.00;0.62;0.00;0.00;0.62;4.37;3.30;;;18.10;26.30;;;;;;2252864;61;20511;-63
2021/01/18 03:12:24;0.00;0.00;0.62;0.00;0.00;0.62;5.00;3.43;;;18.10;26.30;;;;;;2253823;61;20348;-63
2021/01/18 03:15:13;0.00;0.00;0.62;0.00;0.00;0.62;6.50;3.60;;;18.10;26.30;;;;;;2253234;61;20372;-63
2021/01/18 03:18:02;0.00;0.00;0.62;0.00;0.00;0.62;6.67;4.10;;;18.10;26.40;;;;;;2253206;61;20384;-63
2021/01/18 03:20:47;0.00;0.00;0.62;0.00;0.00;0.62;4.13;3.17;;;18.10;26.40;;;;;;2253630;61;20589;-63
2021/01/18 03:23:32;0.00;0.00;0.62;0.00;0.00;0.62;6.60;3.00;;;18.10;26.40;;;;;;2253251;61;20384;-63
2021/01/18 03:26:17;0.00;0.00;0.62;0.00;0.00;0.62;7.00;2.57;;;18.00;26.80;;;;;;2253729;61;20779;-63
2021/01/18 03:29:02;0.00;0.00;0.62;0.00;0.00;0.62;5.57;3.63;;;18.00;26.30;;;;;;2253504;61;20388;-63
2021/01/18 03:31:50;0.00;0.00;0.62;0.00;0.00;0.62;5.63;3.23;;;18.00;26.30;;;;;;2253727;61;20371;-63
2021/01/18 03:34:35;0.00;0.00;0.62;0.00;0.00;0.62;5.80;3.13;;;18.00;26.30;;;;;;2254544;61;20407;-63
2021/01/18 03:37:19;0.00;0.00;0.62;0.00;0.00;0.62;9.10;3.83;;;18.00;26.30;;;;;;2253978;61;20408;-63
2021/01/18 03:40:05;0.00;0.00;0.62;0.00;0.00;0.62;5.07;2.53;;;18.00;26.40;;;;;;2253696;61;20363;-63
2021/01/18 03:42:56;0.00;0.00;0.62;0.00;0.00;0.62;3.60;2.70;;;18.00;26.40;;;;;;2254385;61;20356;-63
2021/01/18 03:45:44;0.00;0.00;0.62;0.00;0.00;0.62;7.87;3.13;;;17.90;26.30;;;;;;2254250;61;20756;-63
2021/01/18 03:48:28;0.00;0.00;0.62;0.00;0.00;0.62;4.50;2.70;;;17.90;26.30;;;;;;2254383;61;20760;-63
2021/01/18 03:51:13;0.00;0.00;0.62;0.00;0.00;0.62;6.20;2.53;;;17.90;26.30;;;;;;2256508;61;20368;-63
2021/01/18 03:53:58;0.00;0.00;0.62;0.00;0.00;0.62;5.00;2.67;;;17.90;26.40;;;;;;2253763;61;20356;-63
2021/01/18 03:56:43;0.00;0.00;0.62;0.00;0.00;0.62;5.13;3.20;;;17.90;26.40;;;;;;2254350;61;20796;-63
2021/01/18 03:59:27;0.00;0.00;0.62;0.00;0.00;0.62;4.50;2.70;;;17.90;26.40;;;;;;2254211;61;20363;-63
2021/01/18 04:02:13;0.00;0.00;0.62;0.00;0.00;0.62;7.53;2.90;;;17.90;26.40;;;;;;2254594;61;20368;-63
2021/01/18 04:04:58;0.00;0.00;0.62;0.00;0.00;0.62;4.77;2.50;;;17.80;26.40;;;;;;2254199;61;20485;-62
2021/01/18 04:07:44;0.00;0.00;0.62;0.00;0.00;0.62;6.50;3.00;;;17.80;26.40;;;;;;2254242;61;20388;-62
2021/01/18 04:10:30;0.00;0.00;0.62;0.00;0.00;0.62;4.47;2.60;;;17.80;26.40;;;;;;2254204;61;20367;-63
2021/01/18 04:13:14;0.00;0.00;0.62;0.00;0.00;0.62;4.13;2.47;;;17.80;26.40;;;;;;2255038;61;20428;-63
2021/01/18 04:15:59;0.00;0.00;0.62;0.00;0.00;0.62;4.80;1.73;;;17.80;26.40;;;;;;2253830;61;20600;-61
2021/01/18 04:18:45;0.00;0.00;0.62;0.00;0.00;0.62;5.53;2.33;;;17.80;26.40;;;;;;2254254;61;20408;-63
2021/01/18 04:21:29;0.00;0.00;0.62;0.00;0.00;0.62;3.70;2.20;;;17.80;26.50;;;;;;2254177;61;20376;-62
2021/01/18 04:24:14;0.00;0.00;0.62;0.00;0.00;0.62;5.27;2.00;;;17.70;27.00;;;;;;2253654;61;20364;-61
2021/01/18 04:26:59;0.00;0.00;0.62;0.00;0.00;0.62;4.23;2.40;;;17.70;26.40;;;;;;2254232;61;20392;-61
2021/01/18 04:29:43;0.00;0.00;0.62;0.00;0.00;0.62;5.03;2.30;;;17.70;26.40;;;;;;2253796;61;20439;-63
2021/01/18 04:32:28;0.00;0.00;0.62;0.00;0.00;0.62;6.40;3.20;;;17.70;26.40;;;;;;2253672;61;20582;-63
2021/01/18 04:35:14;0.00;0.00;0.62;0.00;0.00;0.62;4.90;2.23;;;17.70;26.50;;;;;;2254242;61;20364;-64
2021/01/18 04:37:59;0.00;0.00;0.62;0.00;0.00;0.62;4.70;2.47;;;17.70;27.00;;;;;;2253269;61;20591;-63
2021/01/18 04:40:44;0.00;0.00;0.62;0.00;0.00;0.62;6.50;1.93;;;17.70;26.50;;;;;;2253887;61;20364;-63
2021/01/18 04:43:28;0.00;0.00;0.62;0.00;0.00;0.62;4.47;2.40;;;17.70;26.50;;;;;;2254228;61;20392;-63
2021/01/18 04:46:16;0.00;0.00;0.62;0.00;0.00;0.62;3.47;1.73;;;17.60;26.40;;;;;;2253581;61;20808;-63
2021/01/18 04:49:01;0.00;0.00;0.62;0.00;0.00;0.62;5.80;2.30;;;17.60;26.50;;;;;;2254156;61;20392;-63
2021/01/18 04:51:51;0.00;0.00;0.62;0.00;0.00;0.62;3.83;2.00;;;17.60;26.50;;;;;;2253754;61;20360;-63
2021/01/18 04:54:42;0.00;0.00;0.62;0.00;0.00;0.62;5.07;1.90;;;17.60;26.50;;;;;;2253625;61;20364;-63
2021/01/18 04:57:37;0.00;0.00;0.62;0.00;0.00;0.62;6.90;2.43;;;17.60;26.50;;;;;;2254179;61;20574;-63
2021/01/18 05:00:33;0.00;0.00;0.62;0.00;0.00;0.62;6.10;2.43;;;17.60;26.50;;;;;;2253105;61;20391;-63
2021/01/18 05:03:22;0.00;0.00;0.62;0.00;0.00;0.62;3.83;1.80;;;17.60;27.00;;;;;;2254163;61;20396;-63
2021/01/18 05:06:35;0.00;0.00;0.62;0.00;0.00;0.62;4.10;1.97;;;17.60;26.50;;;;;;2253745;61;20380;-61
2021/01/18 05:09:28;0.00;0.00;0.62;0.00;0.00;0.62;3.00;1.70;;;17.60;26.50;;;;;;2253532;61;20449;-63
2021/01/18 05:12:12;0.00;0.00;0.62;0.00;0.00;0.62;3.60;1.83;;;17.60;26.50;;;;;;2254090;61;20372;-63
2021/01/18 05:14:58;0.00;0.00;0.62;0.00;0.00;0.62;4.63;2.60;;;17.60;27.00;;;;;;2253193;61;20632;-63
2021/01/18 05:17:45;0.00;0.00;0.62;0.00;0.00;0.62;5.07;1.90;;;17.60;26.50;;;;;;2254094;61;20364;-63
2021/01/18 05:20:30;0.00;0.00;0.62;0.00;0.00;0.62;6.50;1.57;;;17.60;26.50;;;;;;2253939;61;20364;-63
2021/01/18 05:23:15;0.00;0.00;0.62;0.00;0.00;0.62;4.07;2.13;;;17.50;26.50;;;;;;2253576;61;20388;-61
2021/01/18 05:26:18;0.00;0.00;0.62;0.00;0.00;0.62;5.93;2.90;;;17.50;26.50;;;;;;2254094;61;20772;-61
2021/01/18 05:29:03;0.00;0.00;0.62;0.00;0.00;0.62;5.80;1.93;;;17.60;26.50;;;;;;2253569;61;20899;-61
2021/01/18 05:31:48;0.00;0.00;0.62;0.00;0.00;0.62;6.80;2.67;;;17.50;26.50;;;;;;2253807;61;20426;-62
2021/01/18 05:34:33;0.00;0.00;0.62;0.00;0.00;0.62;4.00;2.50;;;17.50;26.50;;;;;;2254018;61;20392;-62
2021/01/18 05:37:17;0.00;0.00;0.62;0.00;0.00;0.62;4.23;1.67;;;17.50;26.50;;;;;;2252815;61;20589;-63
2021/01/18 05:40:18;0.00;0.00;0.62;0.00;0.00;0.62;6.30;2.33;;;17.50;26.50;;;;;;2253898;61;20360;-61
2021/01/18 05:43:04;0.00;0.00;0.62;0.00;0.00;0.62;3.50;2.80;;;17.50;26.50;;;;;;2253468;61;20402;-62
2021/01/18 05:45:49;0.00;0.00;0.62;0.00;0.00;0.62;5.30;3.00;;;17.50;26.50;;;;;;2253475;61;20505;-61
2021/01/18 05:48:34;0.00;0.00;0.62;0.00;0.00;0.62;4.27;2.13;;;17.50;26.50;;;;;;2253918;61;20418;-63
2021/01/18 05:51:22;0.00;0.00;0.62;0.00;0.00;0.62;4.80;2.93;;;17.50;26.50;;;;;;2253428;61;20368;-63
2021/01/18 05:54:11;0.00;0.00;0.62;0.00;0.00;0.62;4.50;2.60;;;17.50;26.50;;;;;;2253970;61;20404;-62
2021/01/18 05:56:56;0.00;0.00;0.62;0.00;0.00;0.62;4.07;2.20;;;17.50;26.50;;;;;;2253688;61;20456;-61
2021/01/18 05:59:44;0.00;0.00;0.62;0.00;0.00;0.62;3.97;2.47;;;17.50;26.50;;;;;;2253032;61;20388;-63
2021/01/18 06:02:29;0.00;0.00;0.62;0.00;0.00;0.62;2.43;1.67;;;17.50;26.50;;;;;;2253929;61;20368;-62
2021/01/18 06:05:16;0.00;0.00;0.62;0.00;0.00;0.62;4.63;2.03;;;17.50;26.50;;;;;;2253593;61;20709;-63
2021/01/18 06:08:09;0.00;0.00;0.62;0.00;0.00;0.62;4.87;2.27;;;17.50;26.50;;;;;;2253313;61;20364;-63
2021/01/18 06:10:56;0.00;0.00;0.62;0.00;0.00;0.62;5.90;2.30;;;17.50;26.50;;;;;;2253585;61;20731;-62
2021/01/18 06:13:42;0.00;0.00;0.62;0.00;0.00;0.62;3.57;2.30;;;17.50;26.50;;;;;;2253690;61;20373;-63
2021/01/18 06:16:30;0.00;0.00;0.62;0.00;0.00;0.62;4.63;2.37;;;17.40;26.40;;;;;;2254015;61;20376;-63
2021/01/18 06:19:24;0.00;0.00;0.62;0.00;0.00;0.62;4.60;2.33;;;17.40;26.50;;;;;;2253789;61;20355;-64
2021/01/18 06:22:08;0.00;0.00;0.62;0.00;0.00;0.62;4.30;2.57;;;17.40;26.50;;;;;;2253181;61;20395;-63
2021/01/18 06:24:56;0.00;0.00;0.62;0.00;0.00;0.62;4.00;2.20;;;17.40;26.50;;;;;;2253818;61;20388;-63
2021/01/18 06:27:41;0.00;0.00;0.62;0.00;0.00;0.62;4.40;1.77;;;17.40;26.60;;;;;;2253738;61;20368;-61
2021/01/18 06:30:28;0.00;0.00;0.62;0.00;0.00;0.62;4.00;2.67;;;17.40;26.50;;;;;;2253159;61;20384;-62
2021/01/18 06:33:14;0.00;0.00;0.62;0.00;0.00;0.62;4.17;2.27;;;17.40;26.50;;;;;;2253767;61;20360;-67
2021/01/18 06:36:15;0.00;0.00;0.62;0.00;0.00;0.62;6.83;2.07;;;17.40;26.60;;;;;;2253566;61;20760;-66
2021/01/18 06:39:05;0.00;0.00;0.62;0.00;0.00;0.62;2.93;1.50;;;17.40;26.70;;;;;;2253613;61;20384;-66
2021/01/18 06:41:57;0.00;0.00;0.62;0.00;0.00;0.62;3.50;1.60;;;17.40;26.70;;;;;;2271519;56;20397;-65
2021/01/18 06:44:41;0.00;0.00;0.62;0.00;0.00;0.62;2.47;1.60;;;17.40;26.80;;;;;;2265292;61;20670;-67
2021/01/18 06:47:30;0.00;0.00;0.62;0.00;0.00;0.62;5.70;1.90;;;17.40;26.80;;;;;;2261163;61;20694;-62
2021/01/18 06:50:16;0.00;0.00;0.62;0.00;0.00;0.62;4.40;1.60;;;17.40;26.80;;;;;;2261483;61;20417;-62
2021/01/18 06:53:23;0.00;0.00;0.62;0.00;0.00;0.62;3.07;1.83;;;17.40;27.30;;;;;;2261568;61;20703;-63
2021/01/18 06:56:45;0.00;0.00;0.62;0.00;0.00;0.62;2.73;1.70;;;17.40;26.80;;;;;;2261276;61;20374;-62
2021/01/18 07:00:01;0.00;0.00;0.62;0.00;0.00;0.62;3.10;1.70;;;17.50;26.80;;;;;;2261281;61;20354;-63
2021/01/18 07:02:55;0.00;0.00;0.62;0.00;0.00;0.62;2.03;1.17;;;17.50;27.30;;;;;;2260753;61;20404;-61
2021/01/18 07:05:47;0.00;0.00;0.62;0.00;0.00;0.62;2.80;1.60;;;17.50;26.90;;;;;;2261882;61;20470;-65
2021/01/18 07:08:40;0.00;0.00;0.62;0.00;0.00;0.62;3.30;1.67;;;17.50;26.90;;;;;;2262052;61;20386;-65
2021/01/18 07:11:25;0.00;0.00;0.62;0.00;0.00;0.62;3.10;1.67;;;17.50;26.90;;;;;;2261902;61;20465;-65
2021/01/18 07:14:11;0.00;0.00;0.62;0.00;0.00;0.62;3.83;1.20;;;17.60;27.00;;;;;;2262064;61;20477;-65
2021/01/18 07:17:03;0.00;0.00;0.62;0.00;0.00;0.62;4.27;2.13;;;17.60;27.00;;;;;;2262179;61;20746;-66
2021/01/18 07:19:59;0.00;0.00;0.62;0.00;0.00;0.62;2.50;1.23;;;17.60;27.00;;;;;;2262154;61;20350;-64
2021/01/18 07:23:15;0.00;0.00;0.62;0.00;0.00;0.62;2.27;1.30;;;17.60;27.00;;;;;;2262400;61;20457;-64
2021/01/18 07:26:31;0.00;0.00;0.62;0.00;0.00;0.62;3.00;1.20;;;17.70;27.00;;;;;;2262081;61;20378;-66
2021/01/18 07:29:18;0.00;0.00;0.62;0.00;0.00;0.62;3.30;1.40;;;17.70;27.00;;;;;;2262139;61;20393;-66
2021/01/18 07:32:08;0.00;0.00;0.62;0.00;0.00;0.62;1.87;1.40;;;17.70;27.10;;;;;;2261925;61;20791;-64
2021/01/18 07:34:55;0.00;0.00;0.62;0.00;0.00;0.62;1.90;1.40;;;17.80;27.10;;;;;;2262086;61;20354;-64
2021/01/18 07:37:40;0.00;0.00;0.62;0.00;0.00;0.62;3.03;1.50;;;17.80;27.10;;;;;;2262381;61;20386;-65
2021/01/18 07:40:25;0.00;0.00;0.62;0.00;0.00;0.62;2.00;1.10;;;17.80;27.10;;;;;;2261779;61;20588;-66
2021/01/18 07:43:34;0.00;0.00;0.62;0.00;0.00;0.62;2.60;1.37;;;17.80;27.60;;;;;;2261835;61;20362;-67
2021/01/18 07:46:39;0.00;0.00;0.62;0.00;0.00;0.62;2.83;1.30;;;17.80;27.10;;;;;;2262403;61;20417;-67
2021/01/18 07:49:41;0.00;0.00;0.62;0.00;0.00;0.62;1.83;1.03;;;17.90;27.10;;;;;;2261436;61;20381;-66
2021/01/18 07:52:30;0.00;0.00;0.62;0.00;0.00;0.62;2.33;1.10;;;17.90;27.10;;;;;;2262313;61;20401;-66
2021/01/18 07:55:22;0.00;0.00;0.62;0.00;0.00;0.62;1.60;1.03;;;17.90;27.10;;;;;;2261906;61;20435;-66
2021/01/18 07:58:15;0.00;0.00;0.62;0.00;0.00;0.62;1.67;1.00;;;17.90;27.20;;;;;;2261867;61;20362;-66
2021/01/18 08:01:07;0.00;0.00;0.62;0.00;0.00;0.62;2.60;1.40;;;18.00;27.20;;;;;;2262315;61;20781;-64
2021/01/18 08:03:52;0.00;0.00;0.62;0.00;0.00;0.62;2.57;0.97;;;18.00;27.20;;;;;;2262016;61;20382;-62
2021/01/18 08:07:00;0.00;0.00;0.62;0.00;0.00;0.62;2.07;1.00;;;18.00;27.20;;;;;;2261359;61;20405;-62
2021/01/18 08:09:53;0.00;0.00;0.62;0.00;0.00;0.62;1.87;1.10;;;18.00;27.70;;;;;;2260949;61;20466;-63
2021/01/18 08:12:38;0.00;0.00;0.62;0.00;0.00;0.62;1.67;0.80;;;18.00;27.20;;;;;;2261759;61;20392;-65
2021/01/18 08:15:28;0.00;0.00;0.62;0.00;0.00;0.62;1.50;0.80;;;18.10;27.20;;;;;;2262390;61;20417;-66
2021/01/18 08:18:27;0.00;0.00;0.62;0.00;0.00;0.62;1.83;0.90;;;18.10;27.20;;;;;;2262122;61;20730;-66
2021/01/18 08:22:01;0.00;0.00;0.62;0.00;0.00;0.62;2.33;1.00;;;18.10;27.20;;;;;;2261865;61;20361;-65
2021/01/18 08:24:54;0.00;0.00;0.62;0.00;0.00;0.62;2.13;1.30;;;18.10;27.20;;;;;;2262189;61;20405;-65
2021/01/18 08:27:46;0.00;0.00;0.62;0.00;0.00;0.62;1.70;1.00;;;18.20;27.30;;;;;;2262163;61;20378;-63
2021/01/18 08:30:41;0.00;0.00;0.62;0.00;0.00;0.62;1.67;0.90;;;18.20;27.30;;;;;;2262402;61;20413;-63
2021/01/18 08:33:26;0.00;0.00;0.62;0.00;0.00;0.62;2.13;1.03;;;18.20;27.30;;;;;;2262238;61;20577;-66
2021/01/18 08:36:11;0.00;0.00;0.62;0.00;0.00;0.62;1.57;0.90;;;18.20;27.30;;;;;;2262477;61;20390;-64
2021/01/18 08:39:09;0.00;0.00;0.62;0.00;0.00;0.62;2.13;1.00;;;18.20;27.30;;;;;;2262282;61;20346;-66
2021/01/18 08:41:54;0.00;0.00;0.62;0.00;0.00;0.62;2.00;0.97;;;18.20;27.30;;;;;;2261891;61;20466;-66
2021/01/18 08:44:40;0.00;0.00;0.62;0.00;0.00;0.62;2.00;0.83;;;18.30;27.40;;;;;;2262462;61;20367;-64
2021/01/18 08:47:38;0.00;0.00;0.62;0.00;0.00;0.62;1.83;1.00;;;18.30;27.30;;;;;;2262037;61;20761;-64
2021/01/18 08:50:29;0.00;0.00;0.62;0.00;0.00;0.62;2.03;0.87;;;18.30;27.30;;;;;;2261767;61;20758;-63
2021/01/18 08:53:32;0.00;0.00;0.62;0.00;0.00;0.62;1.40;0.83;;;18.30;27.30;;;;;;2262099;61;20390;-65
2021/01/18 08:56:32;0.00;0.00;0.62;0.00;0.00;0.62;1.20;0.90;;;18.30;27.30;;;;;;2261806;61;20373;-65
2021/01/18 08:59:17;0.00;0.00;0.62;0.00;0.00;0.62;1.67;0.80;;;18.30;27.30;;;;;;2262255;61;20342;-65
2021/01/18 09:02:06;0.00;0.00;0.62;0.00;0.00;0.62;1.10;0.70;;;18.40;27.40;;;;;;2258811;61;20421;-63
2021/01/18 09:04:52;0.00;0.00;0.62;0.00;0.00;0.62;2.57;1.03;;;18.40;27.40;;;;;;2258628;61;20358;-66
2021/01/18 09:07:38;0.00;0.00;0.62;0.00;0.00;0.62;1.63;1.00;;;18.40;27.30;;;;;;2262202;61;20434;-65
2021/01/18 09:10:24;0.00;0.00;0.62;0.00;0.00;0.62;1.90;1.10;;;18.40;27.30;;;;;;2261564;61;20605;-63
2021/01/18 09:13:09;0.00;0.00;0.62;0.00;0.00;0.62;1.40;0.90;;;18.40;27.30;;;;;;2261689;61;20417;-66
2021/01/18 09:15:57;0.00;0.00;0.62;0.00;0.00;0.62;1.80;1.10;;;18.50;27.40;;;;;;2261934;61;20425;-66
2021/01/18 09:18:42;0.00;0.00;0.62;0.00;0.00;0.62;1.20;0.70;;;18.50;27.30;;;;;;2262149;61;20439;-61
2021/01/18 09:21:28;0.00;0.00;0.62;0.00;0.00;0.62;1.87;0.80;;;18.50;27.40;;;;;;2259145;61;20355;-66
2021/01/18 09:24:14;0.00;0.00;0.62;0.00;0.00;0.62;1.53;1.00;;;18.50;27.30;;;;;;2261949;61;20445;-66
2021/01/18 09:26:59;0.00;0.00;0.62;0.00;0.00;0.62;1.63;1.07;;;18.50;27.90;;;;;;2263223;61;20378;-66
2021/01/18 09:29:58;0.00;0.00;0.62;0.00;0.00;0.62;1.77;0.93;;;18.50;27.30;;;;;;2265053;61;20489;-66
2021/01/18 09:32:54;0.00;0.00;0.62;0.00;0.00;0.62;1.67;1.17;;;18.50;27.30;;;;;;2263952;61;20423;-63
2021/01/18 09:35:41;0.00;0.00;0.62;0.00;0.00;0.62;1.97;0.90;;;18.50;27.30;;;;;;2262600;61;20386;-60
2021/01/18 09:38:27;0.00;0.00;0.62;0.00;0.00;0.62;2.03;1.03;;;18.60;27.40;;;;;;2262797;61;20449;-66
2021/01/18 09:41:13;0.00;0.00;0.62;0.00;0.00;0.62;1.80;1.10;;;18.60;27.40;;;;;;2252596;61;617788;-66
2021/01/18 09:44:04;0.00;0.00;0.62;0.00;0.00;0.62;1.20;0.90;;;18.60;27.40;;;;;;2264611;61;20254;-62
2021/01/18 09:46:51;0.00;0.00;0.62;0.00;0.00;0.62;1.60;1.00;;;18.60;27.40;;;;;;2264170;61;20614;-66
2021/01/18 09:49:36;0.00;0.00;0.62;0.00;0.00;0.62;1.97;1.10;;;18.60;27.40;;;;;;2259298;61;20382;-68
2021/01/18 09:52:22;0.00;0.00;0.62;0.00;0.00;0.62;2.03;1.20;;;18.60;27.40;;;;;;2262282;61;20397;-68
2021/01/18 09:55:16;0.00;0.00;0.62;0.00;0.00;0.62;2.07;1.37;;;18.60;27.40;;;;;;2262295;61;20378;-68
2021/01/18 09:58:08;0.00;0.00;0.62;0.00;0.00;0.62;3.00;1.80;;;18.60;27.40;;;;;;2262163;61;20752;-67
2021/01/18 10:00:53;0.00;0.00;0.62;0.00;0.00;0.62;2.23;1.40;;;18.60;27.40;;;;;;2261893;61;20779;-63
2021/01/18 10:03:40;0.00;0.00;0.62;0.00;0.00;0.62;3.10;1.63;;;18.70;27.40;;;;;;2261968;61;20573;-68
2021/01/18 10:06:27;0.00;0.00;0.62;0.00;0.00;0.62;1.87;1.20;;;18.70;27.40;;;;;;2262487;61;20393;-66
2021/01/18 10:09:19;0.00;0.00;0.62;0.00;0.00;0.62;2.30;1.37;;;18.70;27.40;;;;;;2261761;61;20513;-67
2021/01/18 10:12:10;0.00;0.00;0.62;0.00;0.00;0.62;1.50;1.10;;;18.70;27.40;;;;;;2262436;61;20410;-64
2021/01/18 10:14:59;0.00;0.00;0.62;0.00;0.00;0.62;2.17;1.47;;;18.70;27.90;;;;;;2261598;61;20370;-65
2021/01/18 10:17:43;0.00;0.00;0.62;0.00;0.00;0.62;2.07;1.60;;;18.70;27.40;;;;;;2262214;61;20440;-65
2021/01/18 10:20:30;0.00;0.00;0.62;0.00;0.00;0.62;1.97;1.27;;;18.80;27.40;;;;;;2262107;61;20450;-65
2021/01/18 10:23:16;0.00;0.00;0.62;0.00;0.00;0.62;1.87;1.30;;;18.80;27.40;;;;;;2262128;61;20706;-63
2021/01/18 10:26:20;0.00;0.00;0.62;0.00;0.00;0.62;1.30;0.90;;;18.80;27.40;;;;;;2261885;61;20425;-64
2021/01/18 10:29:07;0.00;0.00;0.62;0.00;0.00;0.62;1.87;1.23;;;18.80;27.40;;;;;;2261708;61;20386;-63
2021/01/18 10:31:52;0.00;0.00;0.62;0.00;0.00;0.62;1.67;1.20;;;18.80;27.40;;;;;;2261966;61;20822;-60
2021/01/18 10:34:37;0.00;0.00;0.62;0.00;0.00;0.62;1.87;1.20;;;18.80;27.90;;;;;;2261922;61;20366;-66
2021/01/18 10:37:27;0.00;0.00;0.62;0.00;0.00;0.62;1.80;1.20;;;18.80;27.40;;;;;;2258613;61;20377;-66
2021/01/18 10:40:18;0.00;0.00;0.62;0.00;0.00;0.62;2.00;1.40;;;18.80;27.40;;;;;;2261146;61;20362;-67
2021/01/18 10:43:03;0.00;0.00;0.62;0.00;0.00;0.62;2.03;1.73;;;18.80;27.40;;;;;;2261776;61;20357;-66
2021/01/18 10:45:49;0.00;0.00;0.62;0.00;0.00;0.62;2.53;1.80;;;18.80;27.40;;;;;;2261504;61;20493;-66
2021/01/18 10:48:34;0.00;0.00;0.62;0.00;0.00;0.62;1.47;0.80;;;18.80;27.40;;;;;;2261769;61;20366;-64
2021/01/18 10:51:25;0.00;0.00;0.62;0.00;0.00;0.62;2.17;1.53;;;18.80;27.40;;;;;;2261899;61;20752;-66
2021/01/18 10:54:09;0.00;0.00;0.62;0.00;0.00;0.62;2.13;1.10;;;18.80;27.40;;;;;;2261835;61;20412;-65
2021/01/18 10:56:56;0.00;0.00;0.62;0.00;0.00;0.62;1.53;1.40;;;18.80;27.40;;;;;;2261646;61;20389;-64
2021/01/18 10:59:41;0.00;0.00;0.62;0.00;0.00;0.62;2.37;1.47;;;18.90;27.40;;;;;;2261652;61;20718;-65
2021/01/18 11:02:26;0.00;0.00;0.62;0.00;0.00;0.62;2.13;1.20;;;18.80;27.40;;;;;;2261581;61;20366;-64
2021/01/18 11:05:12;0.00;0.00;0.62;0.00;0.00;0.62;1.90;1.50;;;18.80;27.40;;;;;;2261795;61;20354;-63
2021/01/18 11:07:59;0.00;0.00;0.62;0.00;0.00;0.62;2.00;1.40;;;18.90;27.50;;;;;;2261446;61;20366;-67